sensor_id;sensor_type;location;lat;lon;timestamp;P1;durP1;ratioP1;P2;durP2;ratioP2
23282;SDS011;11810;51.178;3.878;2022-10-26T00:00:03;14.18;;;5.82;;
23282;SDS011;11810;51.178;3.878;2022-10-26T00:02:30;22.98;;;5.93;;
23282;SDS011;11810;51.178;3.878;2022-10-26T00:04:55;15.60;;;5.55;;
23282;SDS011;11810;51.178;3.878;2022-10-26T00:07:21;12.00;;;5.40;;
23282;SDS011;11810;51.178;3.878;2022-10-26T00:09:47;15.57;;;5.47;;
23282;SDS011;11810;51.178;3.878;2022-10-26T00:12:13;14.43;;;5.30;;
23282;SDS011;11810;51.178;3.878;2022-10-26T00:14:39;15.73;;;5.38;;
23282;SDS011;11810;51.178;3.878;2022-10-26T00:17:05;10.93;;;4.70;;
23282;SDS011;11810;51.178;3.878;2022-10-26T00:19:34;8.40;;;4.88;;
23282;SDS011;11810;51.178;3.878;2022-10-26T00:22:02;8.23;;;5.10;;
23282;SDS011;11810;51.178;3.878;2022-10-26T00:24:28;10.32;;;4.97;;
23282;SDS011;11810;51.178;3.878;2022-10-26T00:26:54;12.70;;;5.18;;
23282;SDS011;11810;51.178;3.878;2022-10-26T00:29:19;10.63;;;4.72;;
23282;SDS011;11810;51.178;3.878;2022-10-26T00:31:45;11.43;;;4.72;;
23282;SDS011;11810;51.178;3.878;2022-10-26T00:34:11;11.43;;;5.45;;
23282;SDS011;11810;51.178;3.878;2022-10-26T00:36:36;15.15;;;4.60;;
23282;SDS011;11810;51.178;3.878;2022-10-26T00:39:02;12.93;;;4.95;;
23282;SDS011;11810;51.178;3.878;2022-10-26T00:41:30;14.93;;;5.28;;
23282;SDS011;11810;51.178;3.878;2022-10-26T00:43:58;11.55;;;4.78;;
23282;SDS011;11810;51.178;3.878;2022-10-26T00:46:25;13.27;;;4.88;;
23282;SDS011;11810;51.178;3.878;2022-10-26T00:49:00;13.57;;;5.25;;
23282;SDS011;11810;51.178;3.878;2022-10-26T00:51:45;13.10;;;5.65;;
23282;SDS011;11810;51.178;3.878;2022-10-26T00:54:15;12.25;;;5.00;;
23282;SDS011;11810;51.178;3.878;2022-10-26T00:56:43;13.15;;;4.75;;
23282;SDS011;11810;51.178;3.878;2022-10-26T00:59:10;11.02;;;5.13;;
23282;SDS011;11810;51.178;3.878;2022-10-26T01:01:40;15.15;;;5.50;;
23282;SDS011;11810;51.178;3.878;2022-10-26T01:04:08;15.77;;;5.18;;
23282;SDS011;11810;51.178;3.878;2022-10-26T01:06:34;11.45;;;5.28;;
23282;SDS011;11810;51.178;3.878;2022-10-26T01:09:02;14.07;;;5.40;;
23282;SDS011;11810;51.178;3.878;2022-10-26T01:11:28;11.45;;;5.00;;
23282;SDS011;11810;51.178;3.878;2022-10-26T01:13:54;12.88;;;5.35;;
23282;SDS011;11810;51.178;3.878;2022-10-26T01:30:12;11.63;;;5.35;;
23282;SDS011;11810;51.178;3.878;2022-10-26T01:35:20;10.73;;;5.22;;
23282;SDS011;11810;51.178;3.878;2022-10-26T01:43:23;13.40;;;4.63;;
23282;SDS011;11810;51.178;3.878;2022-10-26T01:45:50;12.85;;;4.75;;
23282;SDS011;11810;51.178;3.878;2022-10-26T01:48:18;8.02;;;4.60;;
23282;SDS011;11810;51.178;3.878;2022-10-26T01:50:48;8.85;;;4.88;;
23282;SDS011;11810;51.178;3.878;2022-10-26T01:53:17;11.82;;;4.75;;
23282;SDS011;11810;51.178;3.878;2022-10-26T02:06:52;10.88;;;4.63;;
23282;SDS011;11810;51.178;3.878;2022-10-26T02:12:18;13.90;;;4.20;;
23282;SDS011;11810;51.178;3.878;2022-10-26T02:14:52;11.90;;;4.10;;
23282;SDS011;11810;51.178;3.878;2022-10-26T02:17:35;8.63;;;4.03;;
23282;SDS011;11810;51.178;3.878;2022-10-26T02:20:27;14.23;;;3.92;;
23282;SDS011;11810;51.178;3.878;2022-10-26T02:22:58;6.25;;;3.13;;
23282;SDS011;11810;51.178;3.878;2022-10-26T02:25:32;11.93;;;3.75;;
23282;SDS011;11810;51.178;3.878;2022-10-26T02:28:09;16.65;;;4.25;;
23282;SDS011;11810;51.178;3.878;2022-10-26T02:30:38;7.15;;;3.30;;
23282;SDS011;11810;51.178;3.878;2022-10-26T02:33:06;11.68;;;3.55;;
23282;SDS011;11810;51.178;3.878;2022-10-26T02:35:35;9.73;;;3.80;;
23282;SDS011;11810;51.178;3.878;2022-10-26T02:38:03;7.10;;;3.30;;
23282;SDS011;11810;51.178;3.878;2022-10-26T02:40:33;13.20;;;3.55;;
23282;SDS011;11810;51.178;3.878;2022-10-26T02:43:02;10.70;;;3.78;;
23282;SDS011;11810;51.178;3.878;2022-10-26T02:45:33;7.88;;;3.50;;
23282;SDS011;11810;51.178;3.878;2022-10-26T02:48:03;10.13;;;3.95;;
23282;SDS011;11810;51.178;3.878;2022-10-26T02:51:32;10.43;;;3.42;;
23282;SDS011;11810;51.178;3.878;2022-10-26T02:53:32;12.20;;;3.92;;
23282;SDS011;11810;51.178;3.878;2022-10-26T02:56:05;9.43;;;3.45;;
23282;SDS011;11810;51.178;3.878;2022-10-26T02:58:36;9.35;;;3.05;;
23282;SDS011;11810;51.178;3.878;2022-10-26T03:01:07;12.63;;;3.42;;
23282;SDS011;11810;51.178;3.878;2022-10-26T03:03:33;6.65;;;3.13;;
23282;SDS011;11810;51.178;3.878;2022-10-26T03:05:58;9.63;;;3.50;;
23282;SDS011;11810;51.178;3.878;2022-10-26T03:08:24;12.07;;;3.53;;
23282;SDS011;11810;51.178;3.878;2022-10-26T03:10:50;11.00;;;3.35;;
23282;SDS011;11810;51.178;3.878;2022-10-26T03:13:16;10.27;;;3.15;;
23282;SDS011;11810;51.178;3.878;2022-10-26T03:15:41;6.70;;;3.20;;
23282;SDS011;11810;51.178;3.878;2022-10-26T03:18:07;8.27;;;3.08;;
23282;SDS011;11810;51.178;3.878;2022-10-26T03:20:33;7.00;;;3.38;;
23282;SDS011;11810;51.178;3.878;2022-10-26T03:22:59;7.80;;;3.33;;
23282;SDS011;11810;51.178;3.878;2022-10-26T03:25:25;10.45;;;3.13;;
23282;SDS011;11810;51.178;3.878;2022-10-26T03:27:57;9.68;;;3.10;;
23282;SDS011;11810;51.178;3.878;2022-10-26T03:30:24;7.88;;;3.03;;
23282;SDS011;11810;51.178;3.878;2022-10-26T03:32:51;12.25;;;3.67;;
23282;SDS011;11810;51.178;3.878;2022-10-26T03:35:17;13.32;;;3.17;;
23282;SDS011;11810;51.178;3.878;2022-10-26T03:37:42;8.25;;;3.05;;
23282;SDS011;11810;51.178;3.878;2022-10-26T03:40:08;11.23;;;3.10;;
23282;SDS011;11810;51.178;3.878;2022-10-26T03:42:35;9.48;;;3.33;;
23282;SDS011;11810;51.178;3.878;2022-10-26T03:45:01;10.95;;;3.63;;
23282;SDS011;11810;51.178;3.878;2022-10-26T03:47:27;10.88;;;3.33;;
23282;SDS011;11810;51.178;3.878;2022-10-26T03:49:53;12.77;;;3.60;;
23282;SDS011;11810;51.178;3.878;2022-10-26T03:52:19;9.63;;;3.10;;
23282;SDS011;11810;51.178;3.878;2022-10-26T03:54:45;8.75;;;3.45;;
23282;SDS011;11810;51.178;3.878;2022-10-26T03:57:10;7.80;;;3.25;;
23282;SDS011;11810;51.178;3.878;2022-10-26T03:59:36;7.15;;;3.30;;
23282;SDS011;11810;51.178;3.878;2022-10-26T04:02:02;7.20;;;3.10;;
23282;SDS011;11810;51.178;3.878;2022-10-26T04:04:28;14.20;;;3.22;;
23282;SDS011;11810;51.178;3.878;2022-10-26T04:06:53;7.93;;;3.53;;
23282;SDS011;11810;51.178;3.878;2022-10-26T04:09:19;6.85;;;2.65;;
23282;SDS011;11810;51.178;3.878;2022-10-26T04:11:45;7.68;;;3.05;;
23282;SDS011;11810;51.178;3.878;2022-10-26T04:14:11;11.57;;;3.90;;
23282;SDS011;11810;51.178;3.878;2022-10-26T04:16:37;10.80;;;3.28;;
23282;SDS011;11810;51.178;3.878;2022-10-26T04:19:03;14.50;;;3.45;;
23282;SDS011;11810;51.178;3.878;2022-10-26T04:21:29;7.93;;;3.28;;
23282;SDS011;11810;51.178;3.878;2022-10-26T04:23:57;6.38;;;2.95;;
23282;SDS011;11810;51.178;3.878;2022-10-26T04:26:23;12.98;;;3.75;;
23282;SDS011;11810;51.178;3.878;2022-10-26T04:28:49;6.78;;;2.65;;
23282;SDS011;11810;51.178;3.878;2022-10-26T04:31:15;8.65;;;2.85;;
23282;SDS011;11810;51.178;3.878;2022-10-26T04:33:41;10.75;;;2.70;;
23282;SDS011;11810;51.178;3.878;2022-10-26T04:36:06;8.23;;;3.00;;
23282;SDS011;11810;51.178;3.878;2022-10-26T04:38:32;7.38;;;2.90;;
23282;SDS011;11810;51.178;3.878;2022-10-26T04:40:58;10.02;;;2.95;;
23282;SDS011;11810;51.178;3.878;2022-10-26T04:43:24;6.15;;;2.67;;
23282;SDS011;11810;51.178;3.878;2022-10-26T04:45:53;9.05;;;2.80;;
23282;SDS011;11810;51.178;3.878;2022-10-26T04:48:22;8.23;;;3.13;;
23282;SDS011;11810;51.178;3.878;2022-10-26T04:50:49;8.18;;;2.97;;
23282;SDS011;11810;51.178;3.878;2022-10-26T04:53:15;10.30;;;2.90;;
23282;SDS011;11810;51.178;3.878;2022-10-26T04:55:41;10.02;;;2.72;;
23282;SDS011;11810;51.178;3.878;2022-10-26T04:58:07;9.20;;;3.10;;
23282;SDS011;11810;51.178;3.878;2022-10-26T05:00:33;11.43;;;2.92;;
23282;SDS011;11810;51.178;3.878;2022-10-26T05:03:00;9.68;;;2.85;;
23282;SDS011;11810;51.178;3.878;2022-10-26T05:05:27;10.45;;;2.92;;
23282;SDS011;11810;51.178;3.878;2022-10-26T05:07:54;15.43;;;2.42;;
23282;SDS011;11810;51.178;3.878;2022-10-26T05:10:21;8.07;;;2.72;;
23282;SDS011;11810;51.178;3.878;2022-10-26T05:12:51;6.10;;;2.20;;
23282;SDS011;11810;51.178;3.878;2022-10-26T05:15:17;6.57;;;2.55;;
23282;SDS011;11810;51.178;3.878;2022-10-26T05:17:43;8.25;;;2.80;;
23282;SDS011;11810;51.178;3.878;2022-10-26T05:20:09;7.00;;;2.40;;
23282;SDS011;11810;51.178;3.878;2022-10-26T05:22:38;7.20;;;2.42;;
23282;SDS011;11810;51.178;3.878;2022-10-26T05:25:04;7.88;;;2.42;;
23282;SDS011;11810;51.178;3.878;2022-10-26T05:27:30;6.72;;;2.35;;
23282;SDS011;11810;51.178;3.878;2022-10-26T05:29:56;8.63;;;2.33;;
23282;SDS011;11810;51.178;3.878;2022-10-26T05:32:22;10.40;;;2.65;;
23282;SDS011;11810;51.178;3.878;2022-10-26T05:34:48;6.97;;;2.67;;
23282;SDS011;11810;51.178;3.878;2022-10-26T05:37:14;8.95;;;2.65;;
23282;SDS011;11810;51.178;3.878;2022-10-26T05:39:39;5.07;;;2.20;;
23282;SDS011;11810;51.178;3.878;2022-10-26T05:42:07;15.43;;;2.70;;
23282;SDS011;11810;51.178;3.878;2022-10-26T05:44:33;10.55;;;2.85;;
23282;SDS011;11810;51.178;3.878;2022-10-26T05:46:59;8.93;;;2.40;;
23282;SDS011;11810;51.178;3.878;2022-10-26T05:49:25;6.03;;;2.17;;
23282;SDS011;11810;51.178;3.878;2022-10-26T05:51:51;10.88;;;2.53;;
23282;SDS011;11810;51.178;3.878;2022-10-26T05:54:17;14.85;;;2.78;;
23282;SDS011;11810;51.178;3.878;2022-10-26T05:56:43;11.88;;;2.70;;
23282;SDS011;11810;51.178;3.878;2022-10-26T05:59:13;10.80;;;2.47;;
23282;SDS011;11810;51.178;3.878;2022-10-26T06:01:47;7.45;;;2.60;;
23282;SDS011;11810;51.178;3.878;2022-10-26T06:07:03;10.13;;;3.03;;
23282;SDS011;11810;51.178;3.878;2022-10-26T06:09:36;6.47;;;2.75;;
23282;SDS011;11810;51.178;3.878;2022-10-26T06:12:02;10.63;;;2.67;;
23282;SDS011;11810;51.178;3.878;2022-10-26T06:14:28;8.88;;;2.78;;
23282;SDS011;11810;51.178;3.878;2022-10-26T06:17:00;9.05;;;2.83;;
23282;SDS011;11810;51.178;3.878;2022-10-26T06:19:38;9.18;;;2.70;;
23282;SDS011;11810;51.178;3.878;2022-10-26T06:22:31;9.18;;;2.70;;
23282;SDS011;11810;51.178;3.878;2022-10-26T06:25:12;6.65;;;2.90;;
23282;SDS011;11810;51.178;3.878;2022-10-26T06:30:38;10.63;;;2.65;;
23282;SDS011;11810;51.178;3.878;2022-10-26T06:33:05;8.52;;;2.80;;
23282;SDS011;11810;51.178;3.878;2022-10-26T06:40:38;8.10;;;3.55;;
23282;SDS011;11810;51.178;3.878;2022-10-26T06:43:16;12.98;;;3.30;;
23282;SDS011;11810;51.178;3.878;2022-10-26T06:54:23;10.98;;;3.40;;
23282;SDS011;11810;51.178;3.878;2022-10-26T06:57:12;13.07;;;3.60;;
23282;SDS011;11810;51.178;3.878;2022-10-26T06:59:47;8.70;;;2.83;;
23282;SDS011;11810;51.178;3.878;2022-10-26T07:02:27;9.00;;;2.97;;
23282;SDS011;11810;51.178;3.878;2022-10-26T07:04:53;9.85;;;2.90;;
23282;SDS011;11810;51.178;3.878;2022-10-26T07:07:22;8.85;;;3.53;;
23282;SDS011;11810;51.178;3.878;2022-10-26T07:09:50;4.25;;;2.58;;
23282;SDS011;11810;51.178;3.878;2022-10-26T07:12:17;9.85;;;3.38;;
23282;SDS011;11810;51.178;3.878;2022-10-26T07:14:43;8.77;;;2.83;;
23282;SDS011;11810;51.178;3.878;2022-10-26T07:17:09;8.05;;;2.80;;
23282;SDS011;11810;51.178;3.878;2022-10-26T07:19:35;14.15;;;3.28;;
23282;SDS011;11810;51.178;3.878;2022-10-26T07:22:01;7.47;;;3.25;;
23282;SDS011;11810;51.178;3.878;2022-10-26T07:24:27;8.40;;;2.97;;
23282;SDS011;11810;51.178;3.878;2022-10-26T07:26:54;11.98;;;2.85;;
23282;SDS011;11810;51.178;3.878;2022-10-26T07:29:21;8.10;;;2.88;;
23282;SDS011;11810;51.178;3.878;2022-10-26T07:31:48;9.65;;;3.00;;
23282;SDS011;11810;51.178;3.878;2022-10-26T07:34:13;7.28;;;3.13;;
23282;SDS011;11810;51.178;3.878;2022-10-26T07:36:39;9.23;;;3.05;;
23282;SDS011;11810;51.178;3.878;2022-10-26T07:39:06;11.38;;;3.10;;
23282;SDS011;11810;51.178;3.878;2022-10-26T07:41:32;9.63;;;2.58;;
23282;SDS011;11810;51.178;3.878;2022-10-26T07:43:58;9.95;;;3.17;;
23282;SDS011;11810;51.178;3.878;2022-10-26T07:46:24;8.25;;;2.72;;
23282;SDS011;11810;51.178;3.878;2022-10-26T07:48:51;9.65;;;2.50;;
23282;SDS011;11810;51.178;3.878;2022-10-26T07:51:17;9.73;;;2.70;;
23282;SDS011;11810;51.178;3.878;2022-10-26T07:53:43;7.75;;;2.38;;
23282;SDS011;11810;51.178;3.878;2022-10-26T07:56:10;7.78;;;2.67;;
23282;SDS011;11810;51.178;3.878;2022-10-26T07:58:36;6.50;;;2.40;;
23282;SDS011;11810;51.178;3.878;2022-10-26T08:01:12;6.55;;;2.08;;
23282;SDS011;11810;51.178;3.878;2022-10-26T08:03:39;9.02;;;2.47;;
23282;SDS011;11810;51.178;3.878;2022-10-26T08:06:05;7.60;;;2.60;;
23282;SDS011;11810;51.178;3.878;2022-10-26T08:08:31;10.93;;;3.03;;
23282;SDS011;11810;51.178;3.878;2022-10-26T08:10:58;7.32;;;2.30;;
23282;SDS011;11810;51.178;3.878;2022-10-26T08:13:24;6.72;;;2.28;;
23282;SDS011;11810;51.178;3.878;2022-10-26T08:15:55;15.35;;;3.08;;
23282;SDS011;11810;51.178;3.878;2022-10-26T08:18:25;5.50;;;2.50;;
23282;SDS011;11810;51.178;3.878;2022-10-26T08:20:51;7.75;;;2.72;;
23282;SDS011;11810;51.178;3.878;2022-10-26T08:23:18;7.82;;;2.42;;
23282;SDS011;11810;51.178;3.878;2022-10-26T08:25:44;7.30;;;2.25;;
23282;SDS011;11810;51.178;3.878;2022-10-26T08:28:10;11.00;;;2.63;;
23282;SDS011;11810;51.178;3.878;2022-10-26T08:30:36;7.63;;;2.40;;
23282;SDS011;11810;51.178;3.878;2022-10-26T08:33:03;9.32;;;2.50;;
23282;SDS011;11810;51.178;3.878;2022-10-26T08:35:31;7.30;;;2.35;;
23282;SDS011;11810;51.178;3.878;2022-10-26T08:37:58;8.63;;;2.42;;
23282;SDS011;11810;51.178;3.878;2022-10-26T08:40:26;11.82;;;2.72;;
23282;SDS011;11810;51.178;3.878;2022-10-26T08:42:59;9.73;;;2.58;;
23282;SDS011;11810;51.178;3.878;2022-10-26T08:45:49;8.90;;;2.28;;
23282;SDS011;11810;51.178;3.878;2022-10-26T08:48:20;5.38;;;2.10;;
23282;SDS011;11810;51.178;3.878;2022-10-26T08:50:54;4.80;;;1.90;;
23282;SDS011;11810;51.178;3.878;2022-10-26T08:53:58;7.18;;;2.80;;
23282;SDS011;11810;51.178;3.878;2022-10-26T08:56:27;6.03;;;2.40;;
23282;SDS011;11810;51.178;3.878;2022-10-26T08:59:00;7.55;;;2.22;;
23282;SDS011;11810;51.178;3.878;2022-10-26T09:01:51;6.38;;;1.90;;
23282;SDS011;11810;51.178;3.878;2022-10-26T09:04:17;4.18;;;2.25;;
23282;SDS011;11810;51.178;3.878;2022-10-26T09:06:55;8.30;;;2.22;;
23282;SDS011;11810;51.178;3.878;2022-10-26T09:26:04;4.97;;;1.80;;
23282;SDS011;11810;51.178;3.878;2022-10-26T09:28:43;9.55;;;1.80;;
23282;SDS011;11810;51.178;3.878;2022-10-26T09:31:14;5.75;;;1.92;;
23282;SDS011;11810;51.178;3.878;2022-10-26T09:33:42;7.47;;;1.80;;
23282;SDS011;11810;51.178;3.878;2022-10-26T09:36:09;7.93;;;1.90;;
23282;SDS011;11810;51.178;3.878;2022-10-26T09:38:43;5.93;;;1.90;;
23282;SDS011;11810;51.178;3.878;2022-10-26T09:44:11;6.18;;;1.80;;
23282;SDS011;11810;51.178;3.878;2022-10-26T09:47:00;5.63;;;1.70;;
23282;SDS011;11810;51.178;3.878;2022-10-26T09:50:14;5.43;;;1.67;;
23282;SDS011;11810;51.178;3.878;2022-10-26T09:52:46;8.73;;;1.95;;
23282;SDS011;11810;51.178;3.878;2022-10-26T09:55:12;7.20;;;2.00;;
23282;SDS011;11810;51.178;3.878;2022-10-26T09:57:39;5.10;;;1.80;;
23282;SDS011;11810;51.178;3.878;2022-10-26T10:00:15;5.85;;;1.90;;
23282;SDS011;11810;51.178;3.878;2022-10-26T10:02:43;6.72;;;2.20;;
23282;SDS011;11810;51.178;3.878;2022-10-26T10:10:38;4.13;;;1.63;;
23282;SDS011;11810;51.178;3.878;2022-10-26T10:13:32;7.57;;;1.90;;
23282;SDS011;11810;51.178;3.878;2022-10-26T10:16:09;8.32;;;2.10;;
23282;SDS011;11810;51.178;3.878;2022-10-26T10:18:35;5.55;;;1.90;;
23282;SDS011;11810;51.178;3.878;2022-10-26T10:21:03;5.00;;;1.73;;
23282;SDS011;11810;51.178;3.878;2022-10-26T10:23:31;7.93;;;2.58;;
23282;SDS011;11810;51.178;3.878;2022-10-26T10:26:16;7.30;;;1.90;;
23282;SDS011;11810;51.178;3.878;2022-10-26T10:28:42;8.38;;;2.28;;
23282;SDS011;11810;51.178;3.878;2022-10-26T10:31:25;4.80;;;1.60;;
23282;SDS011;11810;51.178;3.878;2022-10-26T10:33:53;9.93;;;2.00;;
23282;SDS011;11810;51.178;3.878;2022-10-26T10:36:20;9.75;;;1.90;;
23282;SDS011;11810;51.178;3.878;2022-10-26T10:38:49;5.78;;;1.35;;
23282;SDS011;11810;51.178;3.878;2022-10-26T10:41:27;6.82;;;1.77;;
23282;SDS011;11810;51.178;3.878;2022-10-26T10:43:58;4.82;;;1.77;;
23282;SDS011;11810;51.178;3.878;2022-10-26T10:46:25;7.63;;;2.15;;
23282;SDS011;11810;51.178;3.878;2022-10-26T10:49:34;8.38;;;2.13;;
23282;SDS011;11810;51.178;3.878;2022-10-26T10:51:42;6.05;;;2.10;;
23282;SDS011;11810;51.178;3.878;2022-10-26T10:54:42;9.00;;;2.15;;
23282;SDS011;11810;51.178;3.878;2022-10-26T10:57:15;16.33;;;1.90;;
23282;SDS011;11810;51.178;3.878;2022-10-26T11:00:04;7.82;;;1.92;;
23282;SDS011;11810;51.178;3.878;2022-10-26T11:10:43;4.50;;;1.52;;
23282;SDS011;11810;51.178;3.878;2022-10-26T11:13:16;6.32;;;1.42;;
23282;SDS011;11810;51.178;3.878;2022-10-26T11:15:49;3.75;;;1.30;;
23282;SDS011;11810;51.178;3.878;2022-10-26T11:18:35;4.57;;;1.73;;
23282;SDS011;11810;51.178;3.878;2022-10-26T11:21:11;8.90;;;1.85;;
23282;SDS011;11810;51.178;3.878;2022-10-26T11:26:35;5.65;;;1.77;;
23282;SDS011;11810;51.178;3.878;2022-10-26T11:29:38;8.52;;;1.65;;
23282;SDS011;11810;51.178;3.878;2022-10-26T11:32:13;5.82;;;1.50;;
23282;SDS011;11810;51.178;3.878;2022-10-26T11:37:43;6.40;;;1.20;;
23282;SDS011;11810;51.178;3.878;2022-10-26T11:42:59;7.63;;;1.85;;
23282;SDS011;11810;51.178;3.878;2022-10-26T11:45:43;8.65;;;1.90;;
23282;SDS011;11810;51.178;3.878;2022-10-26T11:48:15;8.38;;;1.55;;
23282;SDS011;11810;51.178;3.878;2022-10-26T11:50:52;5.25;;;1.45;;
23282;SDS011;11810;51.178;3.878;2022-10-26T11:53:29;7.28;;;1.40;;
23282;SDS011;11810;51.178;3.878;2022-10-26T11:56:03;5.93;;;1.45;;
23282;SDS011;11810;51.178;3.878;2022-10-26T11:58:38;7.18;;;1.60;;
23282;SDS011;11810;51.178;3.878;2022-10-26T12:01:09;5.80;;;1.40;;
23282;SDS011;11810;51.178;3.878;2022-10-26T12:03:40;5.83;;;1.27;;
23282;SDS011;11810;51.178;3.878;2022-10-26T12:06:10;3.53;;;1.33;;
23282;SDS011;11810;51.178;3.878;2022-10-26T12:08:46;3.63;;;1.33;;
23282;SDS011;11810;51.178;3.878;2022-10-26T12:13:57;7.93;;;1.60;;
23282;SDS011;11810;51.178;3.878;2022-10-26T12:19:30;10.13;;;1.40;;
23282;SDS011;11810;51.178;3.878;2022-10-26T12:22:16;4.60;;;1.30;;
23282;SDS011;11810;51.178;3.878;2022-10-26T12:24:46;7.85;;;1.75;;
23282;SDS011;11810;51.178;3.878;2022-10-26T12:35:28;5.78;;;1.50;;
23282;SDS011;11810;51.178;3.878;2022-10-26T12:37:59;7.60;;;1.40;;
23282;SDS011;11810;51.178;3.878;2022-10-26T12:43:35;6.68;;;1.40;;
23282;SDS011;11810;51.178;3.878;2022-10-26T12:48:44;10.98;;;1.77;;
23282;SDS011;11810;51.178;3.878;2022-10-26T12:51:36;6.80;;;1.45;;
23282;SDS011;11810;51.178;3.878;2022-10-26T12:56:49;7.95;;;1.85;;
23282;SDS011;11810;51.178;3.878;2022-10-26T12:59:40;6.38;;;1.23;;
23282;SDS011;11810;51.178;3.878;2022-10-26T13:11:00;8.65;;;1.80;;
23282;SDS011;11810;51.178;3.878;2022-10-26T13:13:32;10.02;;;1.40;;
23282;SDS011;11810;51.178;3.878;2022-10-26T13:15:59;5.85;;;1.65;;
23282;SDS011;11810;51.178;3.878;2022-10-26T13:18:26;4.22;;;1.50;;
23282;SDS011;11810;51.178;3.878;2022-10-26T13:21:09;7.72;;;1.65;;
23282;SDS011;11810;51.178;3.878;2022-10-26T13:23:57;7.80;;;1.30;;
23282;SDS011;11810;51.178;3.878;2022-10-26T13:26:30;7.53;;;1.60;;
23282;SDS011;11810;51.178;3.878;2022-10-26T13:29:01;5.00;;;1.48;;
23282;SDS011;11810;51.178;3.878;2022-10-26T13:39:40;4.78;;;1.38;;
23282;SDS011;11810;51.178;3.878;2022-10-26T13:42:12;5.00;;;1.33;;
23282;SDS011;11810;51.178;3.878;2022-10-26T13:45:02;9.65;;;1.50;;
23282;SDS011;11810;51.178;3.878;2022-10-26T13:50:06;8.05;;;1.85;;
23282;SDS011;11810;51.178;3.878;2022-10-26T13:52:38;5.50;;;1.50;;
23282;SDS011;11810;51.178;3.878;2022-10-26T13:57:53;5.32;;;1.38;;
23282;SDS011;11810;51.178;3.878;2022-10-26T14:00:23;6.80;;;1.40;;
23282;SDS011;11810;51.178;3.878;2022-10-26T14:02:49;5.53;;;1.40;;
23282;SDS011;11810;51.178;3.878;2022-10-26T14:05:15;9.55;;;1.60;;
23282;SDS011;11810;51.178;3.878;2022-10-26T14:07:55;4.38;;;1.23;;
23282;SDS011;11810;51.178;3.878;2022-10-26T14:10:36;7.43;;;1.80;;
23282;SDS011;11810;51.178;3.878;2022-10-26T14:13:08;5.22;;;1.35;;
23282;SDS011;11810;51.178;3.878;2022-10-26T14:15:41;6.32;;;1.52;;
23282;SDS011;11810;51.178;3.878;2022-10-26T14:18:21;5.57;;;1.90;;
23282;SDS011;11810;51.178;3.878;2022-10-26T14:20:57;6.70;;;1.63;;
23282;SDS011;11810;51.178;3.878;2022-10-26T14:23:36;9.10;;;1.87;;
23282;SDS011;11810;51.178;3.878;2022-10-26T14:26:16;9.57;;;1.40;;
23282;SDS011;11810;51.178;3.878;2022-10-26T14:28:49;5.15;;;1.40;;
23282;SDS011;11810;51.178;3.878;2022-10-26T14:31:21;11.10;;;1.65;;
23282;SDS011;11810;51.178;3.878;2022-10-26T14:33:58;5.65;;;1.42;;
23282;SDS011;11810;51.178;3.878;2022-10-26T14:36:39;10.35;;;1.40;;
23282;SDS011;11810;51.178;3.878;2022-10-26T14:39:17;7.07;;;1.30;;
23282;SDS011;11810;51.178;3.878;2022-10-26T14:41:52;12.60;;;1.55;;
23282;SDS011;11810;51.178;3.878;2022-10-26T14:44:20;4.60;;;1.50;;
23282;SDS011;11810;51.178;3.878;2022-10-26T14:46:48;7.75;;;1.50;;
23282;SDS011;11810;51.178;3.878;2022-10-26T14:49:18;6.18;;;1.20;;
23282;SDS011;11810;51.178;3.878;2022-10-26T14:51:46;9.55;;;1.52;;
23282;SDS011;11810;51.178;3.878;2022-10-26T14:54:20;6.03;;;1.30;;
23282;SDS011;11810;51.178;3.878;2022-10-26T14:56:48;9.07;;;1.50;;
23282;SDS011;11810;51.178;3.878;2022-10-26T15:01:56;8.80;;;1.50;;
23282;SDS011;11810;51.178;3.878;2022-10-26T15:04:36;4.35;;;1.17;;
23282;SDS011;11810;51.178;3.878;2022-10-26T15:14:58;6.65;;;1.27;;
23282;SDS011;11810;51.178;3.878;2022-10-26T15:17:46;9.50;;;1.38;;
23282;SDS011;11810;51.178;3.878;2022-10-26T15:20:33;7.95;;;1.42;;
23282;SDS011;11810;51.178;3.878;2022-10-26T15:23:02;8.03;;;1.37;;
23282;SDS011;11810;51.178;3.878;2022-10-26T15:25:32;4.32;;;1.20;;
23282;SDS011;11810;51.178;3.878;2022-10-26T15:28:08;5.55;;;1.20;;
23282;SDS011;11810;51.178;3.878;2022-10-26T15:30:36;8.10;;;1.70;;
23282;SDS011;11810;51.178;3.878;2022-10-26T15:33:18;9.10;;;1.83;;
23282;SDS011;11810;51.178;3.878;2022-10-26T15:35:46;4.10;;;1.03;;
23282;SDS011;11810;51.178;3.878;2022-10-26T15:38:12;5.63;;;1.38;;
23282;SDS011;11810;51.178;3.878;2022-10-26T15:40:40;9.18;;;1.40;;
23282;SDS011;11810;51.178;3.878;2022-10-26T15:43:08;4.95;;;1.10;;
23282;SDS011;11810;51.178;3.878;2022-10-26T15:45:36;7.53;;;1.33;;
23282;SDS011;11810;51.178;3.878;2022-10-26T15:48:17;6.93;;;1.55;;
23282;SDS011;11810;51.178;3.878;2022-10-26T15:50:47;8.65;;;1.55;;
23282;SDS011;11810;51.178;3.878;2022-10-26T15:53:17;5.78;;;1.40;;
23282;SDS011;11810;51.178;3.878;2022-10-26T15:55:45;7.88;;;1.27;;
23282;SDS011;11810;51.178;3.878;2022-10-26T15:58:12;9.65;;;1.75;;
23282;SDS011;11810;51.178;3.878;2022-10-26T16:00:39;12.00;;;1.90;;
23282;SDS011;11810;51.178;3.878;2022-10-26T16:03:07;8.20;;;1.20;;
23282;SDS011;11810;51.178;3.878;2022-10-26T16:05:38;5.28;;;1.30;;
23282;SDS011;11810;51.178;3.878;2022-10-26T16:08:04;6.97;;;1.60;;
23282;SDS011;11810;51.178;3.878;2022-10-26T16:10:30;14.30;;;4.28;;
23282;SDS011;11810;51.178;3.878;2022-10-26T16:12:56;11.75;;;5.55;;
23282;SDS011;11810;51.178;3.878;2022-10-26T16:15:23;15.80;;;5.25;;
23282;SDS011;11810;51.178;3.878;2022-10-26T16:17:49;12.32;;;7.03;;
23282;SDS011;11810;51.178;3.878;2022-10-26T16:20:17;15.45;;;6.85;;
23282;SDS011;11810;51.178;3.878;2022-10-26T16:22:49;8.50;;;2.40;;
23282;SDS011;11810;51.178;3.878;2022-10-26T16:25:17;9.13;;;2.10;;
23282;SDS011;11810;51.178;3.878;2022-10-26T16:27:45;12.82;;;5.18;;
23282;SDS011;11810;51.178;3.878;2022-10-26T16:30:11;16.25;;;8.48;;
23282;SDS011;11810;51.178;3.878;2022-10-26T16:32:38;23.08;;;14.45;;
23282;SDS011;11810;51.178;3.878;2022-10-26T16:35:05;18.70;;;11.43;;
23282;SDS011;11810;51.178;3.878;2022-10-26T16:37:31;15.68;;;7.70;;
23282;SDS011;11810;51.178;3.878;2022-10-26T16:39:57;10.55;;;3.10;;
23282;SDS011;11810;51.178;3.878;2022-10-26T16:42:23;14.25;;;5.07;;
23282;SDS011;11810;51.178;3.878;2022-10-26T16:44:49;9.10;;;3.70;;
23282;SDS011;11810;51.178;3.878;2022-10-26T16:47:15;11.07;;;3.75;;
23282;SDS011;11810;51.178;3.878;2022-10-26T16:49:41;11.95;;;4.22;;
23282;SDS011;11810;51.178;3.878;2022-10-26T16:52:09;16.77;;;8.80;;
23282;SDS011;11810;51.178;3.878;2022-10-26T16:54:35;23.77;;;13.63;;
23282;SDS011;11810;51.178;3.878;2022-10-26T16:57:01;24.40;;;13.15;;
23282;SDS011;11810;51.178;3.878;2022-10-26T16:59:27;22.35;;;13.48;;
23282;SDS011;11810;51.178;3.878;2022-10-26T17:01:53;26.58;;;13.43;;
23282;SDS011;11810;51.178;3.878;2022-10-26T17:04:19;23.30;;;10.80;;
23282;SDS011;11810;51.178;3.878;2022-10-26T17:06:45;18.38;;;9.63;;
23282;SDS011;11810;51.178;3.878;2022-10-26T17:09:10;23.17;;;10.65;;
23282;SDS011;11810;51.178;3.878;2022-10-26T17:11:36;16.58;;;9.00;;
23282;SDS011;11810;51.178;3.878;2022-10-26T17:14:02;15.20;;;5.97;;
23282;SDS011;11810;51.178;3.878;2022-10-26T17:16:27;14.63;;;6.85;;
23282;SDS011;11810;51.178;3.878;2022-10-26T17:18:53;18.92;;;7.03;;
23282;SDS011;11810;51.178;3.878;2022-10-26T17:21:20;16.48;;;8.02;;
23282;SDS011;11810;51.178;3.878;2022-10-26T17:23:56;24.27;;;9.18;;
23282;SDS011;11810;51.178;3.878;2022-10-26T17:26:22;21.40;;;9.05;;
23282;SDS011;11810;51.178;3.878;2022-10-26T17:28:54;18.80;;;7.70;;
23282;SDS011;11810;51.178;3.878;2022-10-26T17:31:22;18.17;;;5.70;;
23282;SDS011;11810;51.178;3.878;2022-10-26T17:33:49;16.58;;;6.38;;